TimeEDT,TemperatureF,Dew PointF,Humidity,Sea Level PressureIn,VisibilityMPH,Wind Direction,Wind SpeedMPH,Gust SpeedMPH,PrecipitationIn,Events,Conditions,WindDirDegrees,DateUTC
12:53 AM,43.0,39.0,86,29.94,7.0,Variable,4.6,-,N/A,,Clear,0,2012-10-10 04:53:00
1:53 AM,46.9,41.0,80,29.91,10.0,South,5.8,-,N/A,,Clear,180,2012-10-10 05:53:00
2:53 AM,48.9,42.1,77,29.88,10.0,South,11.5,-,N/A,,Clear,190,2012-10-10 06:53:00
3:53 AM,50.0,43.0,77,29.87,10.0,SSW,10.4,-,N/A,,Clear,200,2012-10-10 07:53:00
4:53 AM,51.1,43.0,74,29.85,10.0,SSW,13.8,-,N/A,,Clear,210,2012-10-10 08:53:00
5:53 AM,51.1,42.1,71,29.83,10.0,SSW,11.5,-,N/A,,Clear,210,2012-10-10 09:53:00
6:53 AM,48.9,43.0,80,29.82,10.0,South,10.4,-,N/A,,Partly Cloudy,180,2012-10-10 10:53:00
7:00 AM,48.2,42.8,82,29.81,10.0,South,9.2,-,N/A,,Mostly Cloudy,180,2012-10-10 11:00:00
7:53 AM,50.0,42.1,74,29.81,10.0,South,11.5,-,N/A,,Mostly Cloudy,190,2012-10-10 11:53:00
8:41 AM,51.8,42.8,71,29.78,10.0,South,10.4,18.4,0.00,Rain,Light Rain,190,2012-10-10 12:41:00
8:53 AM,51.1,43.0,74,29.79,10.0,South,9.2,-,0.00,Rain,Light Rain,190,2012-10-10 12:53:00
9:08 AM,51.8,42.8,71,29.77,10.0,South,11.5,-,0.00,,Mostly Cloudy,190,2012-10-10 13:08:00
9:37 AM,53.6,44.6,72,29.76,10.0,South,17.3,-,0.00,,Mostly Cloudy,190,2012-10-10 13:37:00
9:53 AM,53.1,44.1,71,29.78,10.0,SSW,18.4,24.2,0.00,,Overcast,210,2012-10-10 13:53:00
10:15 AM,53.6,44.6,72,29.76,10.0,SSW,24.2,35.7,0.00,Rain,Light Rain,210,2012-10-10 14:15:00
10:31 AM,51.8,44.6,76,29.76,7.0,SW,20.7,29.9,0.00,Rain,Light Rain,230,2012-10-10 14:31:00
10:41 AM,51.8,46.4,82,29.77,2.5,West,18.4,27.6,0.01,Rain,Light Rain,260,2012-10-10 14:41:00
10:48 AM,50.0,46.4,87,29.78,3.0,West,18.4,27.6,0.03,Rain,Light Rain,260,2012-10-10 14:48:00
10:53 AM,50.0,46.0,86,29.80,4.0,WNW,19.6,24.2,0.04,Rain,Light Rain,290,2012-10-10 14:53:00
11:06 AM,46.4,42.8,87,29.79,7.0,West,17.3,-,0.00,Rain,Light Rain,280,2012-10-10 15:06:00
11:25 AM,46.4,42.8,87,29.80,7.0,West,16.1,21.9,0.01,Rain,Light Rain,270,2012-10-10 15:25:00
11:53 AM,46.0,42.1,86,29.84,7.0,West,15.0,-,0.02,Rain,Light Rain,280,2012-10-10 15:53:00
12:18 PM,46.4,41.0,81,29.82,10.0,West,12.7,-,0.00,,Mostly Cloudy,270,2012-10-10 16:18:00
12:27 PM,46.4,41.0,81,29.82,10.0,West,11.5,-,0.00,,Mostly Cloudy,270,2012-10-10 16:27:00
12:40 PM,48.2,42.8,82,29.83,10.0,West,11.5,-,0.00,,Mostly Cloudy,270,2012-10-10 16:40:00
12:53 PM,48.9,42.1,77,29.85,10.0,West,11.5,-,0.00,,Mostly Cloudy,270,2012-10-10 16:53:00
1:47 PM,50.0,39.2,66,29.82,10.0,WNW,12.7,-,N/A,,Mostly Cloudy,290,2012-10-10 17:47:00
1:53 PM,50.0,39.9,68,29.84,10.0,West,9.2,-,N/A,,Mostly Cloudy,270,2012-10-10 17:53:00
2:53 PM,50.0,34.0,54,29.86,10.0,West,19.6,26.5,N/A,,Mostly Cloudy,280,2012-10-10 18:53:00
3:53 PM,48.9,35.1,59,29.88,10.0,West,16.1,-,N/A,,Mostly Cloudy,270,2012-10-10 19:53:00
4:53 PM,50.0,32.0,50,29.88,10.0,West,12.7,-,N/A,,Mostly Cloudy,270,2012-10-10 20:53:00
5:53 PM,48.9,34.0,56,29.90,10.0,West,12.7,-,N/A,,Mostly Cloudy,260,2012-10-10 21:53:00
6:01 PM,48.2,33.8,58,29.88,10.0,West,13.8,-,0.00,Rain,Light Rain,270,2012-10-10 22:01:00
6:14 PM,48.2,35.6,62,29.88,10.0,West,11.5,-,0.01,,Mostly Cloudy,270,2012-10-10 22:14:00
6:53 PM,46.9,32.0,56,29.91,10.0,West,13.8,20.7,0.01,,Mostly Cloudy,260,2012-10-10 22:53:00
7:53 PM,45.0,30.0,56,29.94,10.0,West,15.0,21.9,N/A,,Scattered Clouds,270,2012-10-10 23:53:00
8:53 PM,44.1,30.9,60,29.97,10.0,West,16.1,25.3,N/A,,Scattered Clouds,280,2012-10-11 00:53:00
9:53 PM,44.1,30.9,60,30.00,10.0,West,16.1,26.5,N/A,,Scattered Clouds,270,2012-10-11 01:53:00
10:53 PM,42.1,30.9,65,30.03,10.0,West,15.0,24.2,N/A,,Partly Cloudy,260,2012-10-11 02:53:00
11:53 PM,42.1,30.9,65,30.05,10.0,West,13.8,21.9,N/A,,Mostly Cloudy,260,2012-10-11 03:53:00